sensor_id;sensor_type;location;lat;lon;timestamp;P1;durP1;ratioP1;P2;durP2;ratioP2
21727;SDS011;11026;50.560;17.852;2022-08-21T00:01:22;14.07;;;11.77;;
21727;SDS011;11026;50.560;17.852;2022-08-21T00:03:56;13.77;;;10.63;;
21727;SDS011;11026;50.560;17.852;2022-08-21T00:06:29;13.38;;;10.93;;
21727;SDS011;11026;50.560;17.852;2022-08-21T00:16:45;9.63;;;8.60;;
21727;SDS011;11026;50.560;17.852;2022-08-21T00:21:55;9.75;;;7.93;;
21727;SDS011;11026;50.560;17.852;2022-08-21T00:24:37;12.60;;;8.75;;
21727;SDS011;11026;50.560;17.852;2022-08-21T00:29:45;9.15;;;8.10;;
21727;SDS011;11026;50.560;17.852;2022-08-21T00:37:23;9.60;;;8.02;;
21727;SDS011;11026;50.560;17.852;2022-08-21T00:39:52;11.48;;;8.50;;
21727;SDS011;11026;50.560;17.852;2022-08-21T00:42:21;9.90;;;8.13;;
21727;SDS011;11026;50.560;17.852;2022-08-21T00:47:40;12.13;;;8.30;;
21727;SDS011;11026;50.560;17.852;2022-08-21T00:52:49;10.55;;;8.88;;
21727;SDS011;11026;50.560;17.852;2022-08-21T00:55:19;10.32;;;8.25;;
21727;SDS011;11026;50.560;17.852;2022-08-21T00:57:50;10.23;;;8.38;;
21727;SDS011;11026;50.560;17.852;2022-08-21T01:03:20;8.80;;;7.82;;
21727;SDS011;11026;50.560;17.852;2022-08-21T01:10:57;8.25;;;7.45;;
21727;SDS011;11026;50.560;17.852;2022-08-21T01:13:37;8.40;;;7.50;;
21727;SDS011;11026;50.560;17.852;2022-08-21T01:16:11;6.82;;;6.13;;
21727;SDS011;11026;50.560;17.852;2022-08-21T01:21:22;8.40;;;6.33;;
21727;SDS011;11026;50.560;17.852;2022-08-21T01:23:56;7.78;;;6.20;;
21727;SDS011;11026;50.560;17.852;2022-08-21T01:29:11;7.25;;;6.28;;
21727;SDS011;11026;50.560;17.852;2022-08-21T01:31:56;7.40;;;6.07;;
21727;SDS011;11026;50.560;17.852;2022-08-21T01:34:25;7.55;;;6.43;;
21727;SDS011;11026;50.560;17.852;2022-08-21T01:42:16;8.02;;;7.20;;
21727;SDS011;11026;50.560;17.852;2022-08-21T01:44:43;8.90;;;7.35;;
21727;SDS011;11026;50.560;17.852;2022-08-21T01:47:11;9.55;;;7.70;;
21727;SDS011;11026;50.560;17.852;2022-08-21T01:52:37;9.40;;;8.43;;
21727;SDS011;11026;50.560;17.852;2022-08-21T01:57:38;9.65;;;8.70;;
21727;SDS011;11026;50.560;17.852;2022-08-21T02:00:07;11.15;;;9.40;;
21727;SDS011;11026;50.560;17.852;2022-08-21T02:02:44;12.43;;;9.30;;
21727;SDS011;11026;50.560;17.852;2022-08-21T02:05:12;12.68;;;8.75;;
21727;SDS011;11026;50.560;17.852;2022-08-21T02:07:48;12.43;;;9.73;;
21727;SDS011;11026;50.560;17.852;2022-08-21T02:10:19;11.30;;;9.50;;
21727;SDS011;11026;50.560;17.852;2022-08-21T02:12:50;10.90;;;9.55;;
21727;SDS011;11026;50.560;17.852;2022-08-21T02:18:04;11.65;;;9.85;;
21727;SDS011;11026;50.560;17.852;2022-08-21T02:20:41;11.02;;;9.55;;
21727;SDS011;11026;50.560;17.852;2022-08-21T02:23:11;11.60;;;9.70;;
21727;SDS011;11026;50.560;17.852;2022-08-21T02:25:39;10.43;;;9.38;;
21727;SDS011;11026;50.560;17.852;2022-08-21T02:28:09;11.52;;;10.32;;
21727;SDS011;11026;50.560;17.852;2022-08-21T02:30:44;13.00;;;10.75;;
21727;SDS011;11026;50.560;17.852;2022-08-21T02:33:23;11.10;;;9.80;;
21727;SDS011;11026;50.560;17.852;2022-08-21T02:41:26;13.10;;;10.60;;
21727;SDS011;11026;50.560;17.852;2022-08-21T02:44:08;13.77;;;11.70;;
21727;SDS011;11026;50.560;17.852;2022-08-21T02:46:41;14.68;;;11.13;;
21727;SDS011;11026;50.560;17.852;2022-08-21T02:49:10;12.55;;;11.00;;
21727;SDS011;11026;50.560;17.852;2022-08-21T02:51:38;12.18;;;10.93;;
21727;SDS011;11026;50.560;17.852;2022-08-21T02:54:14;12.10;;;10.77;;
21727;SDS011;11026;50.560;17.852;2022-08-21T02:56:48;13.38;;;11.48;;
21727;SDS011;11026;50.560;17.852;2022-08-21T02:59:16;14.25;;;11.40;;
21727;SDS011;11026;50.560;17.852;2022-08-21T03:01:51;13.60;;;11.80;;
21727;SDS011;11026;50.560;17.852;2022-08-21T03:04:18;13.90;;;12.13;;
21727;SDS011;11026;50.560;17.852;2022-08-21T03:06:47;13.93;;;12.13;;
21727;SDS011;11026;50.560;17.852;2022-08-21T03:09:15;16.00;;;12.18;;
21727;SDS011;11026;50.560;17.852;2022-08-21T03:11:43;13.13;;;11.05;;
21727;SDS011;11026;50.560;17.852;2022-08-21T03:14:17;15.73;;;12.27;;
21727;SDS011;11026;50.560;17.852;2022-08-21T03:16:45;13.63;;;11.18;;
21727;SDS011;11026;50.560;17.852;2022-08-21T03:22:00;14.35;;;11.00;;
21727;SDS011;11026;50.560;17.852;2022-08-21T03:24:27;13.25;;;11.02;;
21727;SDS011;11026;50.560;17.852;2022-08-21T03:27:01;15.10;;;11.30;;
21727;SDS011;11026;50.560;17.852;2022-08-21T03:29:39;12.63;;;10.32;;
21727;SDS011;11026;50.560;17.852;2022-08-21T03:32:06;15.52;;;10.27;;
21727;SDS011;11026;50.560;17.852;2022-08-21T03:34:38;13.35;;;11.30;;
21727;SDS011;11026;50.560;17.852;2022-08-21T03:37:08;14.43;;;11.18;;
21727;SDS011;11026;50.560;17.852;2022-08-21T03:42:18;12.65;;;10.05;;
21727;SDS011;11026;50.560;17.852;2022-08-21T03:47:56;12.20;;;10.57;;
21727;SDS011;11026;50.560;17.852;2022-08-21T03:50:25;13.27;;;10.98;;
21727;SDS011;11026;50.560;17.852;2022-08-21T03:53:05;30.80;;;12.30;;
21727;SDS011;11026;50.560;17.852;2022-08-21T03:55:40;17.80;;;12.32;;
21727;SDS011;11026;50.560;17.852;2022-08-21T03:58:17;18.45;;;11.93;;
21727;SDS011;11026;50.560;17.852;2022-08-21T04:00:48;14.13;;;11.65;;
21727;SDS011;11026;50.560;17.852;2022-08-21T04:03:19;13.88;;;10.68;;
21727;SDS011;11026;50.560;17.852;2022-08-21T04:05:48;17.27;;;11.02;;
21727;SDS011;11026;50.560;17.852;2022-08-21T04:08:16;15.40;;;9.77;;
21727;SDS011;11026;50.560;17.852;2022-08-21T04:10:46;15.20;;;9.25;;
21727;SDS011;11026;50.560;17.852;2022-08-21T04:13:15;16.65;;;9.50;;
21727;SDS011;11026;50.560;17.852;2022-08-21T04:15:43;12.63;;;9.15;;
21727;SDS011;11026;50.560;17.852;2022-08-21T04:18:12;12.57;;;9.55;;
21727;SDS011;11026;50.560;17.852;2022-08-21T04:20:41;19.23;;;10.23;;
21727;SDS011;11026;50.560;17.852;2022-08-21T04:23:31;13.90;;;9.43;;
21727;SDS011;11026;50.560;17.852;2022-08-21T04:25:59;9.80;;;8.57;;
21727;SDS011;11026;50.560;17.852;2022-08-21T04:28:27;10.82;;;8.80;;
21727;SDS011;11026;50.560;17.852;2022-08-21T04:30:56;12.52;;;8.32;;
21727;SDS011;11026;50.560;17.852;2022-08-21T04:33:30;12.05;;;9.48;;
21727;SDS011;11026;50.560;17.852;2022-08-21T04:35:58;10.43;;;9.10;;
21727;SDS011;11026;50.560;17.852;2022-08-21T04:38:26;11.60;;;8.90;;
21727;SDS011;11026;50.560;17.852;2022-08-21T04:41:03;11.85;;;8.50;;
21727;SDS011;11026;50.560;17.852;2022-08-21T04:43:32;11.13;;;9.38;;
21727;SDS011;11026;50.560;17.852;2022-08-21T04:46:01;11.10;;;8.02;;
21727;SDS011;11026;50.560;17.852;2022-08-21T04:51:34;12.45;;;8.48;;
21727;SDS011;11026;50.560;17.852;2022-08-21T04:56:47;8.65;;;7.55;;
21727;SDS011;11026;50.560;17.852;2022-08-21T04:59:51;3.67;;;1.95;;
21727;SDS011;11026;50.560;17.852;2022-08-21T05:02:25;3.17;;;1.80;;
21727;SDS011;11026;50.560;17.852;2022-08-21T05:04:59;4.00;;;2.03;;
21727;SDS011;11026;50.560;17.852;2022-08-21T05:16:01;2.78;;;0.82;;
21727;SDS011;11026;50.560;17.852;2022-08-21T05:18:31;4.78;;;1.17;;
21727;SDS011;11026;50.560;17.852;2022-08-21T05:20:58;3.15;;;1.38;;
21727;SDS011;11026;50.560;17.852;2022-08-21T05:23:26;2.35;;;1.30;;
21727;SDS011;11026;50.560;17.852;2022-08-21T05:26:02;2.03;;;1.00;;
21727;SDS011;11026;50.560;17.852;2022-08-21T05:36:46;2.25;;;1.20;;
21727;SDS011;11026;50.560;17.852;2022-08-21T05:41:55;4.10;;;1.63;;
21727;SDS011;11026;50.560;17.852;2022-08-21T05:50:37;1.67;;;1.00;;
21727;SDS011;11026;50.560;17.852;2022-08-21T05:53:06;1.33;;;0.75;;
21727;SDS011;11026;50.560;17.852;2022-08-21T05:55:37;1.20;;;1.10;;
21727;SDS011;11026;50.560;17.852;2022-08-21T05:58:13;0.70;;;0.70;;
21727;SDS011;11026;50.560;17.852;2022-08-21T06:03:18;1.52;;;0.90;;
21727;SDS011;11026;50.560;17.852;2022-08-21T06:08:32;2.55;;;0.77;;
21727;SDS011;11026;50.560;17.852;2022-08-21T06:11:01;1.13;;;1.02;;
21727;SDS011;11026;50.560;17.852;2022-08-21T06:13:29;2.25;;;1.00;;
21727;SDS011;11026;50.560;17.852;2022-08-21T06:16:07;0.95;;;0.95;;
21727;SDS011;11026;50.560;17.852;2022-08-21T06:18:42;0.93;;;0.93;;
21727;SDS011;11026;50.560;17.852;2022-08-21T06:21:16;3.10;;;0.90;;
21727;SDS011;11026;50.560;17.852;2022-08-21T06:23:46;0.80;;;0.80;;
21727;SDS011;11026;50.560;17.852;2022-08-21T06:26:16;1.10;;;0.90;;
21727;SDS011;11026;50.560;17.852;2022-08-21T06:31:16;1.10;;;1.00;;
21727;SDS011;11026;50.560;17.852;2022-08-21T06:33:47;1.00;;;1.00;;
21727;SDS011;11026;50.560;17.852;2022-08-21T06:36:16;1.13;;;0.95;;
21727;SDS011;11026;50.560;17.852;2022-08-21T06:41:38;1.13;;;1.02;;
21727;SDS011;11026;50.560;17.852;2022-08-21T06:44:25;1.40;;;1.30;;
21727;SDS011;11026;50.560;17.852;2022-08-21T06:46:53;1.25;;;0.98;;
21727;SDS011;11026;50.560;17.852;2022-08-21T06:51:57;1.33;;;0.75;;
21727;SDS011;11026;50.560;17.852;2022-08-21T06:57:00;0.80;;;0.80;;
21727;SDS011;11026;50.560;17.852;2022-08-21T06:59:29;0.98;;;0.80;;
21727;SDS011;11026;50.560;17.852;2022-08-21T07:02:00;0.80;;;0.80;;
21727;SDS011;11026;50.560;17.852;2022-08-21T07:04:28;0.85;;;0.60;;
21727;SDS011;11026;50.560;17.852;2022-08-21T07:07:11;1.00;;;0.90;;
21727;SDS011;11026;50.560;17.852;2022-08-21T07:09:39;1.98;;;0.95;;
21727;SDS011;11026;50.560;17.852;2022-08-21T07:14:37;0.77;;;0.70;;
21727;SDS011;11026;50.560;17.852;2022-08-21T07:17:12;2.78;;;0.70;;
21727;SDS011;11026;50.560;17.852;2022-08-21T07:19:41;0.93;;;0.60;;
21727;SDS011;11026;50.560;17.852;2022-08-21T07:22:09;1.60;;;0.65;;
21727;SDS011;11026;50.560;17.852;2022-08-21T07:24:39;0.63;;;0.63;;
21727;SDS011;11026;50.560;17.852;2022-08-21T07:27:07;0.60;;;0.60;;
21727;SDS011;11026;50.560;17.852;2022-08-21T07:29:36;0.50;;;0.50;;
21727;SDS011;11026;50.560;17.852;2022-08-21T07:32:04;0.70;;;0.50;;
21727;SDS011;11026;50.560;17.852;2022-08-21T07:34:31;0.75;;;0.63;;
21727;SDS011;11026;50.560;17.852;2022-08-21T07:36:59;0.50;;;0.50;;
21727;SDS011;11026;50.560;17.852;2022-08-21T07:39:36;0.50;;;0.50;;
21727;SDS011;11026;50.560;17.852;2022-08-21T07:42:06;0.75;;;0.50;;
21727;SDS011;11026;50.560;17.852;2022-08-21T07:44:35;0.60;;;0.60;;
21727;SDS011;11026;50.560;17.852;2022-08-21T07:52:41;0.60;;;0.60;;
21727;SDS011;11026;50.560;17.852;2022-08-21T07:55:11;0.30;;;0.30;;
21727;SDS011;11026;50.560;17.852;2022-08-21T07:57:40;0.68;;;0.50;;
21727;SDS011;11026;50.560;17.852;2022-08-21T08:00:17;0.63;;;0.60;;
21727;SDS011;11026;50.560;17.852;2022-08-21T08:02:49;1.45;;;0.43;;
21727;SDS011;11026;50.560;17.852;2022-08-21T08:05:19;0.47;;;0.47;;
21727;SDS011;11026;50.560;17.852;2022-08-21T08:07:52;0.80;;;0.40;;
21727;SDS011;11026;50.560;17.852;2022-08-21T08:10:29;0.45;;;0.45;;
21727;SDS011;11026;50.560;17.852;2022-08-21T08:12:57;0.57;;;0.52;;
21727;SDS011;11026;50.560;17.852;2022-08-21T08:15:25;1.15;;;0.55;;
21727;SDS011;11026;50.560;17.852;2022-08-21T08:17:55;0.85;;;0.47;;
21727;SDS011;11026;50.560;17.852;2022-08-21T08:20:24;0.60;;;0.60;;
21727;SDS011;11026;50.560;17.852;2022-08-21T08:25:25;0.80;;;0.40;;
21727;SDS011;11026;50.560;17.852;2022-08-21T08:28:01;0.95;;;0.57;;
21727;SDS011;11026;50.560;17.852;2022-08-21T08:30:44;0.40;;;0.40;;
21727;SDS011;11026;50.560;17.852;2022-08-21T08:33:13;0.47;;;0.40;;
21727;SDS011;11026;50.560;17.852;2022-08-21T08:38:16;0.60;;;0.60;;
21727;SDS011;11026;50.560;17.852;2022-08-21T08:43:37;2.67;;;0.70;;
21727;SDS011;11026;50.560;17.852;2022-08-21T08:46:10;1.02;;;0.70;;
21727;SDS011;11026;50.560;17.852;2022-08-21T08:56:38;1.30;;;1.20;;
21727;SDS011;11026;50.560;17.852;2022-08-21T08:59:11;3.22;;;2.00;;
21727;SDS011;11026;50.560;17.852;2022-08-21T09:01:42;2.95;;;2.40;;
21727;SDS011;11026;50.560;17.852;2022-08-21T09:04:16;4.35;;;3.40;;
21727;SDS011;11026;50.560;17.852;2022-08-21T09:09:46;7.05;;;4.40;;
21727;SDS011;11026;50.560;17.852;2022-08-21T09:12:42;5.80;;;4.90;;
21727;SDS011;11026;50.560;17.852;2022-08-21T09:20:37;7.20;;;5.15;;
21727;SDS011;11026;50.560;17.852;2022-08-21T09:23:31;7.57;;;5.95;;
21727;SDS011;11026;50.560;17.852;2022-08-21T09:29:30;8.30;;;6.40;;
21727;SDS011;11026;50.560;17.852;2022-08-21T09:31:59;8.07;;;6.20;;
21727;SDS011;11026;50.560;17.852;2022-08-21T09:37:02;9.75;;;6.75;;
21727;SDS011;11026;50.560;17.852;2022-08-21T09:42:20;7.43;;;5.63;;
21727;SDS011;11026;50.560;17.852;2022-08-21T09:45:03;7.60;;;5.60;;
21727;SDS011;11026;50.560;17.852;2022-08-21T09:47:34;10.32;;;7.75;;
21727;SDS011;11026;50.560;17.852;2022-08-21T09:50:09;7.40;;;6.13;;
21727;SDS011;11026;50.560;17.852;2022-08-21T09:52:57;7.45;;;6.05;;
21727;SDS011;11026;50.560;17.852;2022-08-21T09:55:34;7.18;;;5.03;;
21727;SDS011;11026;50.560;17.852;2022-08-21T09:58:40;5.63;;;4.93;;
21727;SDS011;11026;50.560;17.852;2022-08-21T10:01:15;5.97;;;4.30;;
21727;SDS011;11026;50.560;17.852;2022-08-21T10:04:12;6.72;;;5.18;;
21727;SDS011;11026;50.560;17.852;2022-08-21T10:06:42;6.38;;;5.80;;
21727;SDS011;11026;50.560;17.852;2022-08-21T10:21:31;5.53;;;3.97;;
21727;SDS011;11026;50.560;17.852;2022-08-21T10:23:47;3.22;;;2.90;;
21727;SDS011;11026;50.560;17.852;2022-08-21T10:44:55;4.50;;;4.10;;
21727;SDS011;11026;50.560;17.852;2022-08-21T10:58:21;5.43;;;4.93;;
21727;SDS011;11026;50.560;17.852;2022-08-21T11:00:59;5.95;;;5.10;;
21727;SDS011;11026;50.560;17.852;2022-08-21T11:03:37;7.05;;;4.85;;
21727;SDS011;11026;50.560;17.852;2022-08-21T11:09:04;5.65;;;5.10;;
21727;SDS011;11026;50.560;17.852;2022-08-21T11:12:28;7.68;;;5.70;;
21727;SDS011;11026;50.560;17.852;2022-08-21T11:17:39;7.13;;;6.25;;
21727;SDS011;11026;50.560;17.852;2022-08-21T11:29:36;8.30;;;6.40;;
21727;SDS011;11026;50.560;17.852;2022-08-21T11:35:16;8.15;;;6.30;;
21727;SDS011;11026;50.560;17.852;2022-08-21T11:38:11;7.22;;;6.45;;
21727;SDS011;11026;50.560;17.852;2022-08-21T11:41:19;9.02;;;7.82;;
21727;SDS011;11026;50.560;17.852;2022-08-21T11:52:31;6.65;;;5.63;;
21727;SDS011;11026;50.560;17.852;2022-08-21T11:55:25;8.10;;;5.53;;
21727;SDS011;11026;50.560;17.852;2022-08-21T12:00:59;9.25;;;5.07;;
21727;SDS011;11026;50.560;17.852;2022-08-21T12:06:13;6.53;;;5.72;;
21727;SDS011;11026;50.560;17.852;2022-08-21T12:08:56;7.05;;;5.10;;
21727;SDS011;11026;50.560;17.852;2022-08-21T12:11:32;7.07;;;5.22;;
21727;SDS011;11026;50.560;17.852;2022-08-21T12:14:19;8.32;;;5.13;;
21727;SDS011;11026;50.560;17.852;2022-08-21T12:16:48;6.15;;;4.97;;
21727;SDS011;11026;50.560;17.852;2022-08-21T12:24:40;4.97;;;4.47;;
21727;SDS011;11026;50.560;17.852;2022-08-21T12:30:18;7.18;;;5.40;;
21727;SDS011;11026;50.560;17.852;2022-08-21T12:32:57;9.05;;;5.15;;
21727;SDS011;11026;50.560;17.852;2022-08-21T12:35:42;7.82;;;5.32;;
21727;SDS011;11026;50.560;17.852;2022-08-21T12:47:37;7.35;;;5.30;;
21727;SDS011;11026;50.560;17.852;2022-08-21T12:50:24;5.88;;;5.13;;
21727;SDS011;11026;50.560;17.852;2022-08-21T12:53:10;7.07;;;4.72;;
21727;SDS011;11026;50.560;17.852;2022-08-21T12:55:47;6.18;;;5.10;;
21727;SDS011;11026;50.560;17.852;2022-08-21T12:58:24;7.55;;;5.47;;
21727;SDS011;11026;50.560;17.852;2022-08-21T13:03:47;8.40;;;5.00;;
21727;SDS011;11026;50.560;17.852;2022-08-21T13:06:40;6.23;;;5.03;;
21727;SDS011;11026;50.560;17.852;2022-08-21T13:09:14;8.57;;;5.60;;
21727;SDS011;11026;50.560;17.852;2022-08-21T13:11:45;8.68;;;5.22;;
21727;SDS011;11026;50.560;17.852;2022-08-21T13:14:32;6.25;;;5.00;;
21727;SDS011;11026;50.560;17.852;2022-08-21T13:17:18;8.45;;;5.18;;
21727;SDS011;11026;50.560;17.852;2022-08-21T13:20:28;8.20;;;4.90;;
21727;SDS011;11026;50.560;17.852;2022-08-21T13:22:50;6.68;;;4.72;;
21727;SDS011;11026;50.560;17.852;2022-08-21T13:25:18;7.93;;;4.88;;
21727;SDS011;11026;50.560;17.852;2022-08-21T13:28:05;7.28;;;4.95;;
21727;SDS011;11026;50.560;17.852;2022-08-21T13:30:45;6.65;;;4.47;;
21727;SDS011;11026;50.560;17.852;2022-08-21T13:33:23;7.20;;;4.50;;
21727;SDS011;11026;50.560;17.852;2022-08-21T13:36:19;7.10;;;4.97;;
21727;SDS011;11026;50.560;17.852;2022-08-21T13:38:50;8.38;;;4.68;;
21727;SDS011;11026;50.560;17.852;2022-08-21T13:43:50;8.48;;;5.03;;
21727;SDS011;11026;50.560;17.852;2022-08-21T13:49:04;7.95;;;5.63;;
21727;SDS011;11026;50.560;17.852;2022-08-21T13:51:35;6.40;;;4.93;;
21727;SDS011;11026;50.560;17.852;2022-08-21T13:57:00;9.25;;;5.07;;
21727;SDS011;11026;50.560;17.852;2022-08-21T13:59:31;6.32;;;4.72;;
21727;SDS011;11026;50.560;17.852;2022-08-21T14:02:15;8.55;;;5.30;;
21727;SDS011;11026;50.560;17.852;2022-08-21T14:04:58;8.57;;;5.38;;
21727;SDS011;11026;50.560;17.852;2022-08-21T14:10:03;6.30;;;5.00;;
21727;SDS011;11026;50.560;17.852;2022-08-21T14:13:19;9.27;;;5.45;;
21727;SDS011;11026;50.560;17.852;2022-08-21T14:15:34;7.88;;;4.80;;
21727;SDS011;11026;50.560;17.852;2022-08-21T14:18:13;10.32;;;5.03;;
21727;SDS011;11026;50.560;17.852;2022-08-21T14:20:42;9.88;;;5.13;;
21727;SDS011;11026;50.560;17.852;2022-08-21T14:23:23;7.90;;;4.93;;
21727;SDS011;11026;50.560;17.852;2022-08-21T14:25:52;8.40;;;5.25;;
21727;SDS011;11026;50.560;17.852;2022-08-21T14:30:59;10.57;;;5.50;;
21727;SDS011;11026;50.560;17.852;2022-08-21T14:33:45;9.60;;;4.85;;
21727;SDS011;11026;50.560;17.852;2022-08-21T14:36:15;8.52;;;4.82;;
21727;SDS011;11026;50.560;17.852;2022-08-21T14:38:48;8.73;;;4.93;;
21727;SDS011;11026;50.560;17.852;2022-08-21T14:41:18;10.30;;;5.32;;
21727;SDS011;11026;50.560;17.852;2022-08-21T14:43:51;7.57;;;5.10;;
21727;SDS011;11026;50.560;17.852;2022-08-21T14:46:35;8.98;;;5.00;;
21727;SDS011;11026;50.560;17.852;2022-08-21T14:49:28;7.97;;;5.40;;
21727;SDS011;11026;50.560;17.852;2022-08-21T14:51:57;9.43;;;4.82;;
21727;SDS011;11026;50.560;17.852;2022-08-21T14:54:29;8.05;;;5.80;;
21727;SDS011;11026;50.560;17.852;2022-08-21T14:59:37;7.28;;;5.38;;
21727;SDS011;11026;50.560;17.852;2022-08-21T15:02:05;9.38;;;5.10;;
21727;SDS011;11026;50.560;17.852;2022-08-21T15:04:34;10.57;;;5.65;;
21727;SDS011;11026;50.560;17.852;2022-08-21T15:07:04;7.93;;;5.47;;
21727;SDS011;11026;50.560;17.852;2022-08-21T15:12:05;11.65;;;6.18;;
21727;SDS011;11026;50.560;17.852;2022-08-21T15:14:34;12.98;;;6.00;;
21727;SDS011;11026;50.560;17.852;2022-08-21T15:17:09;10.13;;;6.60;;
21727;SDS011;11026;50.560;17.852;2022-08-21T15:19:37;9.48;;;6.40;;
21727;SDS011;11026;50.560;17.852;2022-08-21T15:22:05;9.98;;;7.45;;
21727;SDS011;11026;50.560;17.852;2022-08-21T15:24:46;10.05;;;6.82;;
21727;SDS011;11026;50.560;17.852;2022-08-21T15:29:45;11.82;;;6.93;;
21727;SDS011;11026;50.560;17.852;2022-08-21T15:35:11;11.10;;;6.90;;
21727;SDS011;11026;50.560;17.852;2022-08-21T15:37:46;9.20;;;6.68;;
21727;SDS011;11026;50.560;17.852;2022-08-21T15:40:15;12.52;;;7.60;;
21727;SDS011;11026;50.560;17.852;2022-08-21T15:42:43;9.38;;;6.25;;
21727;SDS011;11026;50.560;17.852;2022-08-21T15:45:14;14.65;;;6.95;;
21727;SDS011;11026;50.560;17.852;2022-08-21T15:50:36;11.63;;;6.72;;
21727;SDS011;11026;50.560;17.852;2022-08-21T15:53:18;11.10;;;6.20;;
21727;SDS011;11026;50.560;17.852;2022-08-21T15:55:51;12.07;;;7.15;;
21727;SDS011;11026;50.560;17.852;2022-08-21T16:01:00;12.50;;;6.53;;
21727;SDS011;11026;50.560;17.852;2022-08-21T16:03:35;10.93;;;6.90;;
21727;SDS011;11026;50.560;17.852;2022-08-21T16:06:05;11.38;;;6.88;;
21727;SDS011;11026;50.560;17.852;2022-08-21T16:08:36;10.23;;;6.60;;
21727;SDS011;11026;50.560;17.852;2022-08-21T16:11:11;11.77;;;6.75;;
21727;SDS011;11026;50.560;17.852;2022-08-21T16:13:41;12.40;;;6.70;;
21727;SDS011;11026;50.560;17.852;2022-08-21T16:16:10;9.95;;;6.40;;
21727;SDS011;11026;50.560;17.852;2022-08-21T16:18:47;10.88;;;7.10;;
21727;SDS011;11026;50.560;17.852;2022-08-21T16:21:18;10.88;;;6.55;;
21727;SDS011;11026;50.560;17.852;2022-08-21T16:26:22;11.35;;;7.03;;
21727;SDS011;11026;50.560;17.852;2022-08-21T16:31:24;10.00;;;7.10;;
21727;SDS011;11026;50.560;17.852;2022-08-21T16:33:53;8.68;;;7.20;;
21727;SDS011;11026;50.560;17.852;2022-08-21T16:36:24;13.02;;;7.50;;
21727;SDS011;11026;50.560;17.852;2022-08-21T16:41:30;10.05;;;6.97;;
21727;SDS011;11026;50.560;17.852;2022-08-21T16:44:01;9.43;;;7.60;;
21727;SDS011;11026;50.560;17.852;2022-08-21T16:46:32;12.80;;;7.40;;
21727;SDS011;11026;50.560;17.852;2022-08-21T16:49:01;13.93;;;7.97;;
21727;SDS011;11026;50.560;17.852;2022-08-21T16:54:13;11.13;;;8.05;;
21727;SDS011;11026;50.560;17.852;2022-08-21T16:56:42;10.35;;;8.43;;
21727;SDS011;11026;50.560;17.852;2022-08-21T16:59:13;10.02;;;7.90;;
21727;SDS011;11026;50.560;17.852;2022-08-21T17:01:45;11.55;;;7.80;;
21727;SDS011;11026;50.560;17.852;2022-08-21T17:04:13;11.57;;;8.38;;
21727;SDS011;11026;50.560;17.852;2022-08-21T17:06:42;11.05;;;7.95;;
21727;SDS011;11026;50.560;17.852;2022-08-21T17:09:10;13.27;;;8.50;;
21727;SDS011;11026;50.560;17.852;2022-08-21T17:11:42;11.80;;;8.55;;
21727;SDS011;11026;50.560;17.852;2022-08-21T17:14:20;10.65;;;8.65;;
21727;SDS011;11026;50.560;17.852;2022-08-21T17:16:50;13.35;;;9.45;;
21727;SDS011;11026;50.560;17.852;2022-08-21T17:19:21;11.57;;;8.70;;
21727;SDS011;11026;50.560;17.852;2022-08-21T17:24:39;13.07;;;9.82;;
21727;SDS011;11026;50.560;17.852;2022-08-21T17:27:07;12.00;;;9.80;;
21727;SDS011;11026;50.560;17.852;2022-08-21T17:29:37;12.38;;;9.70;;
21727;SDS011;11026;50.560;17.852;2022-08-21T17:32:10;13.80;;;9.60;;
21727;SDS011;11026;50.560;17.852;2022-08-21T17:37:22;13.18;;;11.20;;
21727;SDS011;11026;50.560;17.852;2022-08-21T17:45:17;15.85;;;12.10;;
21727;SDS011;11026;50.560;17.852;2022-08-21T17:47:47;12.00;;;10.73;;
21727;SDS011;11026;50.560;17.852;2022-08-21T17:50:20;13.68;;;12.07;;
21727;SDS011;11026;50.560;17.852;2022-08-21T17:52:48;13.88;;;11.95;;
21727;SDS011;11026;50.560;17.852;2022-08-21T17:55:16;15.32;;;12.77;;
21727;SDS011;11026;50.560;17.852;2022-08-21T17:57:47;14.43;;;12.93;;
21727;SDS011;11026;50.560;17.852;2022-08-21T18:03:08;14.10;;;12.52;;
21727;SDS011;11026;50.560;17.852;2022-08-21T18:05:42;15.77;;;13.13;;
21727;SDS011;11026;50.560;17.852;2022-08-21T18:08:14;15.77;;;12.75;;
21727;SDS011;11026;50.560;17.852;2022-08-21T18:10:43;14.10;;;12.75;;
21727;SDS011;11026;50.560;17.852;2022-08-21T18:13:19;14.73;;;12.98;;
21727;SDS011;11026;50.560;17.852;2022-08-21T18:15:50;14.05;;;12.60;;
21727;SDS011;11026;50.560;17.852;2022-08-21T18:18:26;14.30;;;12.02;;
21727;SDS011;11026;50.560;17.852;2022-08-21T18:20:57;15.10;;;12.65;;
21727;SDS011;11026;50.560;17.852;2022-08-21T18:26:25;13.23;;;11.75;;
21727;SDS011;11026;50.560;17.852;2022-08-21T18:29:00;13.88;;;12.32;;
21727;SDS011;11026;50.560;17.852;2022-08-21T18:31:32;16.27;;;12.82;;
21727;SDS011;11026;50.560;17.852;2022-08-21T18:37:02;13.85;;;12.02;;
21727;SDS011;11026;50.560;17.852;2022-08-21T18:39:31;13.38;;;11.70;;
21727;SDS011;11026;50.560;17.852;2022-08-21T18:42:04;15.95;;;12.13;;
21727;SDS011;11026;50.560;17.852;2022-08-21T18:44:36;18.50;;;13.02;;
21727;SDS011;11026;50.560;17.852;2022-08-21T18:49:47;14.05;;;12.40;;
21727;SDS011;11026;50.560;17.852;2022-08-21T18:52:16;16.52;;;12.38;;
21727;SDS011;11026;50.560;17.852;2022-08-21T18:54:46;13.02;;;11.70;;
21727;SDS011;11026;50.560;17.852;2022-08-21T18:57:34;13.93;;;11.65;;
21727;SDS011;11026;50.560;17.852;2022-08-21T19:00:08;16.27;;;11.57;;
21727;SDS011;11026;50.560;17.852;2022-08-21T19:02:45;12.60;;;11.30;;
21727;SDS011;11026;50.560;17.852;2022-08-21T19:08:10;14.93;;;11.85;;
21727;SDS011;11026;50.560;17.852;2022-08-21T19:10:40;14.68;;;11.80;;
21727;SDS011;11026;50.560;17.852;2022-08-21T19:13:17;12.57;;;11.27;;
21727;SDS011;11026;50.560;17.852;2022-08-21T19:15:50;14.02;;;11.55;;
21727;SDS011;11026;50.560;17.852;2022-08-21T19:18:19;11.45;;;10.35;;
21727;SDS011;11026;50.560;17.852;2022-08-21T19:21:01;13.80;;;11.38;;
21727;SDS011;11026;50.560;17.852;2022-08-21T19:29:15;12.60;;;8.65;;
21727;SDS011;11026;50.560;17.852;2022-08-21T19:39:59;9.32;;;6.72;;
21727;SDS011;11026;50.560;17.852;2022-08-21T19:42:27;6.70;;;6.03;;
21727;SDS011;11026;50.560;17.852;2022-08-21T19:45:03;7.05;;;6.05;;
21727;SDS011;11026;50.560;17.852;2022-08-21T19:52:49;5.57;;;4.75;;
21727;SDS011;11026;50.560;17.852;2022-08-21T19:55:27;6.28;;;4.35;;
21727;SDS011;11026;50.560;17.852;2022-08-21T19:57:56;5.43;;;4.57;;
21727;SDS011;11026;50.560;17.852;2022-08-21T20:00:42;4.93;;;3.97;;
21727;SDS011;11026;50.560;17.852;2022-08-21T20:05:47;8.48;;;4.25;;
21727;SDS011;11026;50.560;17.852;2022-08-21T20:08:25;6.03;;;4.65;;
21727;SDS011;11026;50.560;17.852;2022-08-21T20:10:57;6.03;;;4.43;;
21727;SDS011;11026;50.560;17.852;2022-08-21T20:13:35;4.97;;;4.05;;
21727;SDS011;11026;50.560;17.852;2022-08-21T20:16:09;7.32;;;4.18;;
21727;SDS011;11026;50.560;17.852;2022-08-21T20:18:41;5.82;;;3.50;;
21727;SDS011;11026;50.560;17.852;2022-08-21T20:23:55;5.53;;;3.50;;
21727;SDS011;11026;50.560;17.852;2022-08-21T20:26:43;5.95;;;4.10;;
21727;SDS011;11026;50.560;17.852;2022-08-21T20:29:19;4.72;;;3.72;;
21727;SDS011;11026;50.560;17.852;2022-08-21T20:34:24;3.85;;;3.45;;
21727;SDS011;11026;50.560;17.852;2022-08-21T20:36:54;3.75;;;2.97;;
21727;SDS011;11026;50.560;17.852;2022-08-21T20:39:28;5.70;;;3.53;;
21727;SDS011;11026;50.560;17.852;2022-08-21T20:41:57;7.00;;;3.60;;